sensor_id;sensor_type;location;lat;lon;timestamp;P1;durP1;ratioP1;P2;durP2;ratioP2
74227;SDS011;62587;52.352;5.006;2022-12-04T00:01:18;12.77;;;10.07;;
74227;SDS011;62587;52.352;5.006;2022-12-04T00:03:46;13.30;;;10.30;;
74227;SDS011;62587;52.352;5.006;2022-12-04T00:06:12;12.80;;;10.45;;
74227;SDS011;62587;52.352;5.006;2022-12-04T00:08:40;13.52;;;9.85;;
74227;SDS011;62587;52.352;5.006;2022-12-04T00:11:06;12.80;;;10.35;;
74227;SDS011;62587;52.352;5.006;2022-12-04T00:13:34;13.32;;;10.32;;
74227;SDS011;62587;52.352;5.006;2022-12-04T00:15:59;13.82;;;10.90;;
74227;SDS011;62587;52.352;5.006;2022-12-04T00:18:25;13.48;;;10.95;;
74227;SDS011;62587;52.352;5.006;2022-12-04T00:20:51;13.90;;;10.68;;
74227;SDS011;62587;52.352;5.006;2022-12-04T00:23:16;13.70;;;10.93;;
74227;SDS011;62587;52.352;5.006;2022-12-04T00:25:42;14.43;;;10.90;;
74227;SDS011;62587;52.352;5.006;2022-12-04T00:28:12;13.18;;;10.85;;
74227;SDS011;62587;52.352;5.006;2022-12-04T00:30:42;13.77;;;10.07;;
74227;SDS011;62587;52.352;5.006;2022-12-04T00:33:09;13.80;;;10.40;;
74227;SDS011;62587;52.352;5.006;2022-12-04T00:35:34;12.85;;;10.15;;
74227;SDS011;62587;52.352;5.006;2022-12-04T00:37:59;13.27;;;10.40;;
74227;SDS011;62587;52.352;5.006;2022-12-04T00:40:25;14.23;;;11.23;;
74227;SDS011;62587;52.352;5.006;2022-12-04T00:42:50;13.07;;;10.30;;
74227;SDS011;62587;52.352;5.006;2022-12-04T00:45:15;13.60;;;10.70;;
74227;SDS011;62587;52.352;5.006;2022-12-04T00:47:41;13.30;;;10.40;;
74227;SDS011;62587;52.352;5.006;2022-12-04T00:50:06;13.32;;;11.05;;
74227;SDS011;62587;52.352;5.006;2022-12-04T00:52:32;13.68;;;10.27;;
74227;SDS011;62587;52.352;5.006;2022-12-04T00:54:57;13.80;;;10.83;;
74227;SDS011;62587;52.352;5.006;2022-12-04T00:57:23;13.75;;;10.90;;
74227;SDS011;62587;52.352;5.006;2022-12-04T00:59:48;13.00;;;10.17;;
74227;SDS011;62587;52.352;5.006;2022-12-04T01:02:13;13.43;;;10.53;;
74227;SDS011;62587;52.352;5.006;2022-12-04T01:04:39;13.88;;;11.40;;
74227;SDS011;62587;52.352;5.006;2022-12-04T01:07:04;12.87;;;10.03;;
74227;SDS011;62587;52.352;5.006;2022-12-04T01:09:29;11.80;;;9.75;;
74227;SDS011;62587;52.352;5.006;2022-12-04T01:11:56;13.82;;;10.90;;
74227;SDS011;62587;52.352;5.006;2022-12-04T01:14:21;13.43;;;10.40;;
74227;SDS011;62587;52.352;5.006;2022-12-04T01:16:47;14.50;;;9.83;;
74227;SDS011;62587;52.352;5.006;2022-12-04T01:19:12;12.85;;;10.30;;
74227;SDS011;62587;52.352;5.006;2022-12-04T01:21:38;13.27;;;10.50;;
74227;SDS011;62587;52.352;5.006;2022-12-04T01:24:04;14.35;;;10.88;;
74227;SDS011;62587;52.352;5.006;2022-12-04T01:26:30;14.32;;;11.85;;
74227;SDS011;62587;52.352;5.006;2022-12-04T01:28:56;12.82;;;10.70;;
74227;SDS011;62587;52.352;5.006;2022-12-04T01:31:21;14.23;;;10.82;;
74227;SDS011;62587;52.352;5.006;2022-12-04T01:33:47;13.07;;;11.05;;
74227;SDS011;62587;52.352;5.006;2022-12-04T01:36:15;13.90;;;11.27;;
74227;SDS011;62587;52.352;5.006;2022-12-04T01:38:42;13.75;;;10.70;;
74227;SDS011;62587;52.352;5.006;2022-12-04T01:41:08;14.07;;;10.73;;
74227;SDS011;62587;52.352;5.006;2022-12-04T01:43:36;12.85;;;10.30;;
74227;SDS011;62587;52.352;5.006;2022-12-04T01:46:02;13.05;;;10.82;;
74227;SDS011;62587;52.352;5.006;2022-12-04T01:48:29;14.00;;;11.10;;
74227;SDS011;62587;52.352;5.006;2022-12-04T01:51:07;13.65;;;10.63;;
74227;SDS011;62587;52.352;5.006;2022-12-04T01:53:44;13.38;;;10.68;;
74227;SDS011;62587;52.352;5.006;2022-12-04T01:56:12;14.38;;;10.85;;
74227;SDS011;62587;52.352;5.006;2022-12-04T01:58:40;13.48;;;10.40;;
74227;SDS011;62587;52.352;5.006;2022-12-04T02:01:11;14.80;;;11.80;;
74227;SDS011;62587;52.352;5.006;2022-12-04T02:03:36;13.43;;;11.17;;
74227;SDS011;62587;52.352;5.006;2022-12-04T02:06:02;12.38;;;9.55;;
74227;SDS011;62587;52.352;5.006;2022-12-04T02:08:28;13.23;;;10.50;;
74227;SDS011;62587;52.352;5.006;2022-12-04T02:11:17;13.77;;;10.90;;
74227;SDS011;62587;52.352;5.006;2022-12-04T02:16:57;12.30;;;9.95;;
74227;SDS011;62587;52.352;5.006;2022-12-04T02:22:23;14.30;;;10.82;;
74227;SDS011;62587;52.352;5.006;2022-12-04T02:25:06;13.60;;;11.05;;
74227;SDS011;62587;52.352;5.006;2022-12-04T02:31:05;13.70;;;10.90;;
74227;SDS011;62587;52.352;5.006;2022-12-04T02:36:10;13.68;;;11.15;;
74227;SDS011;62587;52.352;5.006;2022-12-04T02:38:41;13.75;;;10.38;;
74227;SDS011;62587;52.352;5.006;2022-12-04T02:48:45;14.57;;;11.02;;
74227;SDS011;62587;52.352;5.006;2022-12-04T02:51:13;14.25;;;10.95;;
74227;SDS011;62587;52.352;5.006;2022-12-04T02:53:44;13.38;;;10.65;;
74227;SDS011;62587;52.352;5.006;2022-12-04T02:56:15;13.25;;;11.23;;
74227;SDS011;62587;52.352;5.006;2022-12-04T02:58:57;13.75;;;10.77;;
74227;SDS011;62587;52.352;5.006;2022-12-04T03:01:28;13.57;;;10.63;;
74227;SDS011;62587;52.352;5.006;2022-12-04T03:04:00;13.75;;;10.98;;
74227;SDS011;62587;52.352;5.006;2022-12-04T03:06:48;14.27;;;10.90;;
74227;SDS011;62587;52.352;5.006;2022-12-04T03:09:21;13.02;;;10.35;;
74227;SDS011;62587;52.352;5.006;2022-12-04T03:11:56;13.70;;;10.80;;
74227;SDS011;62587;52.352;5.006;2022-12-04T03:14:59;14.07;;;10.98;;
74227;SDS011;62587;52.352;5.006;2022-12-04T03:19:57;14.10;;;11.00;;
74227;SDS011;62587;52.352;5.006;2022-12-04T03:22:27;13.02;;;10.73;;
74227;SDS011;62587;52.352;5.006;2022-12-04T03:24:55;13.55;;;10.40;;
74227;SDS011;62587;52.352;5.006;2022-12-04T03:27:39;14.38;;;11.60;;
74227;SDS011;62587;52.352;5.006;2022-12-04T03:30:19;14.95;;;10.95;;
74227;SDS011;62587;52.352;5.006;2022-12-04T03:35:40;14.18;;;10.88;;
74227;SDS011;62587;52.352;5.006;2022-12-04T03:41:04;14.23;;;10.55;;
74227;SDS011;62587;52.352;5.006;2022-12-04T03:43:47;13.80;;;10.98;;
74227;SDS011;62587;52.352;5.006;2022-12-04T03:46:52;13.55;;;11.20;;
74227;SDS011;62587;52.352;5.006;2022-12-04T03:49:15;13.32;;;10.55;;
74227;SDS011;62587;52.352;5.006;2022-12-04T03:51:47;13.48;;;10.20;;
74227;SDS011;62587;52.352;5.006;2022-12-04T03:54:20;13.23;;;10.60;;
74227;SDS011;62587;52.352;5.006;2022-12-04T03:56:52;12.32;;;10.00;;
74227;SDS011;62587;52.352;5.006;2022-12-04T03:59:23;14.77;;;11.07;;
74227;SDS011;62587;52.352;5.006;2022-12-04T04:01:52;14.55;;;11.32;;
74227;SDS011;62587;52.352;5.006;2022-12-04T04:04:27;13.98;;;10.90;;
74227;SDS011;62587;52.352;5.006;2022-12-04T04:07:04;13.48;;;10.60;;
74227;SDS011;62587;52.352;5.006;2022-12-04T04:09:34;13.38;;;11.00;;
74227;SDS011;62587;52.352;5.006;2022-12-04T04:12:09;13.93;;;11.23;;
74227;SDS011;62587;52.352;5.006;2022-12-04T04:14:41;12.20;;;9.98;;
74227;SDS011;62587;52.352;5.006;2022-12-04T04:17:43;15.93;;;12.18;;
74227;SDS011;62587;52.352;5.006;2022-12-04T04:20:48;14.30;;;11.30;;
74227;SDS011;62587;52.352;5.006;2022-12-04T04:23:38;13.18;;;10.02;;
74227;SDS011;62587;52.352;5.006;2022-12-04T04:26:26;14.50;;;10.82;;
74227;SDS011;62587;52.352;5.006;2022-12-04T04:28:55;13.45;;;10.93;;
74227;SDS011;62587;52.352;5.006;2022-12-04T04:31:23;14.68;;;11.80;;
74227;SDS011;62587;52.352;5.006;2022-12-04T04:34:02;13.95;;;10.68;;
74227;SDS011;62587;52.352;5.006;2022-12-04T04:39:30;13.13;;;10.77;;
74227;SDS011;62587;52.352;5.006;2022-12-04T04:47:18;14.25;;;11.23;;
74227;SDS011;62587;52.352;5.006;2022-12-04T04:49:50;14.63;;;11.90;;
74227;SDS011;62587;52.352;5.006;2022-12-04T04:52:19;14.23;;;11.70;;
74227;SDS011;62587;52.352;5.006;2022-12-04T04:54:46;13.40;;;11.20;;
74227;SDS011;62587;52.352;5.006;2022-12-04T04:57:12;14.40;;;11.20;;
74227;SDS011;62587;52.352;5.006;2022-12-04T04:59:37;13.38;;;10.43;;
74227;SDS011;62587;52.352;5.006;2022-12-04T05:02:03;14.65;;;11.40;;
74227;SDS011;62587;52.352;5.006;2022-12-04T05:04:28;13.90;;;11.15;;
74227;SDS011;62587;52.352;5.006;2022-12-04T05:06:54;16.10;;;12.30;;
74227;SDS011;62587;52.352;5.006;2022-12-04T05:09:19;14.10;;;11.43;;
74227;SDS011;62587;52.352;5.006;2022-12-04T05:11:44;12.88;;;11.05;;
74227;SDS011;62587;52.352;5.006;2022-12-04T05:14:10;13.43;;;10.93;;
74227;SDS011;62587;52.352;5.006;2022-12-04T05:16:35;13.17;;;11.20;;
74227;SDS011;62587;52.352;5.006;2022-12-04T05:19:00;15.40;;;10.95;;
74227;SDS011;62587;52.352;5.006;2022-12-04T05:21:44;14.10;;;11.38;;
74227;SDS011;62587;52.352;5.006;2022-12-04T05:24:10;14.10;;;11.15;;
74227;SDS011;62587;52.352;5.006;2022-12-04T05:26:35;14.35;;;11.55;;
74227;SDS011;62587;52.352;5.006;2022-12-04T05:29:01;14.25;;;11.25;;
74227;SDS011;62587;52.352;5.006;2022-12-04T05:31:26;14.30;;;12.02;;
74227;SDS011;62587;52.352;5.006;2022-12-04T05:33:51;14.40;;;10.60;;
74227;SDS011;62587;52.352;5.006;2022-12-04T05:36:16;14.17;;;11.70;;
74227;SDS011;62587;52.352;5.006;2022-12-04T05:38:42;14.47;;;11.43;;
74227;SDS011;62587;52.352;5.006;2022-12-04T05:41:07;14.02;;;11.93;;
74227;SDS011;62587;52.352;5.006;2022-12-04T05:43:33;13.65;;;10.20;;
74227;SDS011;62587;52.352;5.006;2022-12-04T05:46:00;13.80;;;10.18;;
74227;SDS011;62587;52.352;5.006;2022-12-04T05:48:27;13.68;;;11.07;;
74227;SDS011;62587;52.352;5.006;2022-12-04T05:50:52;13.82;;;11.40;;
74227;SDS011;62587;52.352;5.006;2022-12-04T05:53:17;13.13;;;10.60;;
74227;SDS011;62587;52.352;5.006;2022-12-04T05:55:43;13.90;;;11.27;;
74227;SDS011;62587;52.352;5.006;2022-12-04T05:58:08;14.43;;;11.25;;
74227;SDS011;62587;52.352;5.006;2022-12-04T06:00:33;12.98;;;10.93;;
74227;SDS011;62587;52.352;5.006;2022-12-04T06:02:59;14.43;;;11.43;;
74227;SDS011;62587;52.352;5.006;2022-12-04T06:05:24;15.23;;;11.57;;
74227;SDS011;62587;52.352;5.006;2022-12-04T06:07:50;14.47;;;11.90;;
74227;SDS011;62587;52.352;5.006;2022-12-04T06:10:15;15.10;;;12.27;;
74227;SDS011;62587;52.352;5.006;2022-12-04T06:12:40;13.50;;;11.45;;
74227;SDS011;62587;52.352;5.006;2022-12-04T06:15:06;13.53;;;11.03;;
74227;SDS011;62587;52.352;5.006;2022-12-04T06:17:31;13.93;;;10.98;;
74227;SDS011;62587;52.352;5.006;2022-12-04T06:19:57;13.20;;;11.30;;
74227;SDS011;62587;52.352;5.006;2022-12-04T06:22:22;14.73;;;11.63;;
74227;SDS011;62587;52.352;5.006;2022-12-04T06:24:47;14.37;;;11.27;;
74227;SDS011;62587;52.352;5.006;2022-12-04T06:27:12;15.40;;;11.90;;
74227;SDS011;62587;52.352;5.006;2022-12-04T06:29:38;14.60;;;12.00;;
74227;SDS011;62587;52.352;5.006;2022-12-04T06:32:03;14.90;;;11.95;;
74227;SDS011;62587;52.352;5.006;2022-12-04T06:34:29;14.23;;;11.05;;
74227;SDS011;62587;52.352;5.006;2022-12-04T06:36:54;14.23;;;10.77;;
74227;SDS011;62587;52.352;5.006;2022-12-04T06:39:19;13.63;;;11.37;;
74227;SDS011;62587;52.352;5.006;2022-12-04T06:41:45;14.60;;;12.25;;
74227;SDS011;62587;52.352;5.006;2022-12-04T06:44:12;14.00;;;11.52;;
74227;SDS011;62587;52.352;5.006;2022-12-04T06:46:38;13.43;;;11.02;;
74227;SDS011;62587;52.352;5.006;2022-12-04T06:49:03;15.03;;;12.27;;
74227;SDS011;62587;52.352;5.006;2022-12-04T06:51:30;14.25;;;12.18;;
74227;SDS011;62587;52.352;5.006;2022-12-04T06:53:56;14.10;;;11.93;;
74227;SDS011;62587;52.352;5.006;2022-12-04T06:56:23;13.95;;;11.80;;
74227;SDS011;62587;52.352;5.006;2022-12-04T06:58:52;14.73;;;11.80;;
74227;SDS011;62587;52.352;5.006;2022-12-04T07:01:20;14.05;;;11.80;;
74227;SDS011;62587;52.352;5.006;2022-12-04T07:08:52;14.73;;;11.57;;
74227;SDS011;62587;52.352;5.006;2022-12-04T07:11:20;14.27;;;11.73;;
74227;SDS011;62587;52.352;5.006;2022-12-04T07:13:46;14.80;;;11.02;;
74227;SDS011;62587;52.352;5.006;2022-12-04T07:16:13;15.40;;;12.07;;
74227;SDS011;62587;52.352;5.006;2022-12-04T07:18:40;13.00;;;10.95;;
74227;SDS011;62587;52.352;5.006;2022-12-04T07:21:10;14.25;;;11.00;;
74227;SDS011;62587;52.352;5.006;2022-12-04T07:23:39;14.13;;;10.65;;
74227;SDS011;62587;52.352;5.006;2022-12-04T07:26:05;15.70;;;11.15;;
74227;SDS011;62587;52.352;5.006;2022-12-04T07:28:35;14.40;;;11.73;;
74227;SDS011;62587;52.352;5.006;2022-12-04T07:31:05;14.88;;;12.52;;
74227;SDS011;62587;52.352;5.006;2022-12-04T07:33:32;15.10;;;11.73;;
74227;SDS011;62587;52.352;5.006;2022-12-04T07:35:58;15.20;;;12.45;;
74227;SDS011;62587;52.352;5.006;2022-12-04T07:38:25;13.68;;;11.50;;
74227;SDS011;62587;52.352;5.006;2022-12-04T07:40:54;14.23;;;11.82;;
74227;SDS011;62587;52.352;5.006;2022-12-04T07:43:21;13.85;;;12.35;;
74227;SDS011;62587;52.352;5.006;2022-12-04T07:45:46;14.52;;;12.32;;
74227;SDS011;62587;52.352;5.006;2022-12-04T07:48:11;13.90;;;11.77;;
74227;SDS011;62587;52.352;5.006;2022-12-04T07:50:37;15.13;;;12.25;;
74227;SDS011;62587;52.352;5.006;2022-12-04T07:53:02;14.60;;;11.43;;
74227;SDS011;62587;52.352;5.006;2022-12-04T07:55:27;15.87;;;12.27;;
74227;SDS011;62587;52.352;5.006;2022-12-04T07:57:53;16.13;;;12.30;;
74227;SDS011;62587;52.352;5.006;2022-12-04T08:00:18;14.77;;;11.40;;
74227;SDS011;62587;52.352;5.006;2022-12-04T08:02:44;14.73;;;11.93;;
74227;SDS011;62587;52.352;5.006;2022-12-04T08:05:09;15.25;;;11.35;;
74227;SDS011;62587;52.352;5.006;2022-12-04T08:07:34;14.00;;;11.60;;
74227;SDS011;62587;52.352;5.006;2022-12-04T08:10:00;14.27;;;11.53;;
74227;SDS011;62587;52.352;5.006;2022-12-04T08:12:25;13.80;;;11.82;;
74227;SDS011;62587;52.352;5.006;2022-12-04T08:14:50;14.25;;;11.27;;
74227;SDS011;62587;52.352;5.006;2022-12-04T08:17:16;16.60;;;12.40;;
74227;SDS011;62587;52.352;5.006;2022-12-04T08:19:41;15.53;;;12.67;;
74227;SDS011;62587;52.352;5.006;2022-12-04T08:22:06;14.52;;;11.70;;
74227;SDS011;62587;52.352;5.006;2022-12-04T08:24:32;14.00;;;11.17;;
74227;SDS011;62587;52.352;5.006;2022-12-04T08:26:57;14.33;;;11.80;;
74227;SDS011;62587;52.352;5.006;2022-12-04T08:29:22;14.77;;;11.35;;
74227;SDS011;62587;52.352;5.006;2022-12-04T08:31:48;13.68;;;11.40;;
74227;SDS011;62587;52.352;5.006;2022-12-04T08:34:13;14.37;;;11.40;;
74227;SDS011;62587;52.352;5.006;2022-12-04T08:36:39;13.63;;;10.50;;
74227;SDS011;62587;52.352;5.006;2022-12-04T08:39:04;14.52;;;11.40;;
74227;SDS011;62587;52.352;5.006;2022-12-04T08:41:30;16.15;;;12.65;;
74227;SDS011;62587;52.352;5.006;2022-12-04T08:43:55;13.50;;;11.40;;
74227;SDS011;62587;52.352;5.006;2022-12-04T08:46:22;14.15;;;11.90;;
74227;SDS011;62587;52.352;5.006;2022-12-04T08:48:49;15.20;;;11.43;;
74227;SDS011;62587;52.352;5.006;2022-12-04T08:51:16;14.50;;;11.63;;
74227;SDS011;62587;52.352;5.006;2022-12-04T08:53:43;15.15;;;11.88;;
74227;SDS011;62587;52.352;5.006;2022-12-04T08:56:09;13.88;;;11.60;;
74227;SDS011;62587;52.352;5.006;2022-12-04T08:58:35;14.88;;;12.27;;
74227;SDS011;62587;52.352;5.006;2022-12-04T09:01:07;14.95;;;12.35;;
74227;SDS011;62587;52.352;5.006;2022-12-04T09:03:34;14.82;;;11.60;;
74227;SDS011;62587;52.352;5.006;2022-12-04T09:06:00;14.43;;;12.15;;
74227;SDS011;62587;52.352;5.006;2022-12-04T09:08:27;15.93;;;12.60;;
74227;SDS011;62587;52.352;5.006;2022-12-04T09:10:53;13.88;;;11.63;;
74227;SDS011;62587;52.352;5.006;2022-12-04T09:13:18;13.95;;;11.80;;
74227;SDS011;62587;52.352;5.006;2022-12-04T09:15:44;15.73;;;11.65;;
74227;SDS011;62587;52.352;5.006;2022-12-04T09:18:09;13.80;;;11.13;;
74227;SDS011;62587;52.352;5.006;2022-12-04T09:20:34;14.27;;;11.95;;
74227;SDS011;62587;52.352;5.006;2022-12-04T09:23:00;14.98;;;11.90;;
74227;SDS011;62587;52.352;5.006;2022-12-04T09:25:26;14.15;;;11.40;;
74227;SDS011;62587;52.352;5.006;2022-12-04T09:27:52;14.93;;;11.20;;
74227;SDS011;62587;52.352;5.006;2022-12-04T09:30:17;13.50;;;11.07;;
74227;SDS011;62587;52.352;5.006;2022-12-04T09:32:42;13.82;;;11.75;;
74227;SDS011;62587;52.352;5.006;2022-12-04T09:35:08;15.13;;;12.00;;
74227;SDS011;62587;52.352;5.006;2022-12-04T09:37:33;13.88;;;11.38;;
74227;SDS011;62587;52.352;5.006;2022-12-04T09:40:01;14.38;;;11.30;;
74227;SDS011;62587;52.352;5.006;2022-12-04T09:45:15;14.13;;;11.13;;
74227;SDS011;62587;52.352;5.006;2022-12-04T09:47:53;12.85;;;11.00;;
74227;SDS011;62587;52.352;5.006;2022-12-04T09:53:01;15.02;;;11.98;;
74227;SDS011;62587;52.352;5.006;2022-12-04T09:55:28;13.48;;;10.30;;
74227;SDS011;62587;52.352;5.006;2022-12-04T09:57:59;14.05;;;11.13;;
74227;SDS011;62587;52.352;5.006;2022-12-04T10:00:28;14.57;;;12.00;;
74227;SDS011;62587;52.352;5.006;2022-12-04T10:03:02;13.35;;;11.82;;
74227;SDS011;62587;52.352;5.006;2022-12-04T10:05:43;13.88;;;11.23;;
74227;SDS011;62587;52.352;5.006;2022-12-04T10:08:20;13.98;;;11.13;;
74227;SDS011;62587;52.352;5.006;2022-12-04T10:13:39;13.07;;;10.93;;
74227;SDS011;62587;52.352;5.006;2022-12-04T10:16:22;13.95;;;10.48;;
74227;SDS011;62587;52.352;5.006;2022-12-04T10:25:02;13.15;;;10.60;;
74227;SDS011;62587;52.352;5.006;2022-12-04T10:27:28;14.63;;;11.60;;
74227;SDS011;62587;52.352;5.006;2022-12-04T10:30:03;14.38;;;11.02;;
74227;SDS011;62587;52.352;5.006;2022-12-04T10:32:38;13.32;;;11.15;;
74227;SDS011;62587;52.352;5.006;2022-12-04T10:35:20;15.35;;;11.90;;
74227;SDS011;62587;52.352;5.006;2022-12-04T10:37:59;13.20;;;10.43;;
74227;SDS011;62587;52.352;5.006;2022-12-04T10:40:39;13.63;;;10.90;;
74227;SDS011;62587;52.352;5.006;2022-12-04T10:43:16;13.35;;;10.48;;
74227;SDS011;62587;52.352;5.006;2022-12-04T10:45:52;12.57;;;10.55;;
74227;SDS011;62587;52.352;5.006;2022-12-04T10:48:38;13.32;;;10.77;;
74227;SDS011;62587;52.352;5.006;2022-12-04T10:51:04;13.50;;;10.40;;
74227;SDS011;62587;52.352;5.006;2022-12-04T10:53:31;12.88;;;9.43;;
74227;SDS011;62587;52.352;5.006;2022-12-04T10:56:13;14.18;;;10.70;;
74227;SDS011;62587;52.352;5.006;2022-12-04T10:58:53;12.98;;;9.27;;
74227;SDS011;62587;52.352;5.006;2022-12-04T11:01:23;13.20;;;10.40;;
74227;SDS011;62587;52.352;5.006;2022-12-04T11:03:54;12.85;;;9.93;;
74227;SDS011;62587;52.352;5.006;2022-12-04T11:06:23;13.63;;;9.75;;
74227;SDS011;62587;52.352;5.006;2022-12-04T11:08:50;11.70;;;9.73;;
74227;SDS011;62587;52.352;5.006;2022-12-04T11:11:27;12.90;;;9.50;;
74227;SDS011;62587;52.352;5.006;2022-12-04T11:16:33;11.15;;;8.90;;
74227;SDS011;62587;52.352;5.006;2022-12-04T11:19:01;11.88;;;10.00;;
74227;SDS011;62587;52.352;5.006;2022-12-04T11:21:28;11.65;;;10.27;;
74227;SDS011;62587;52.352;5.006;2022-12-04T11:23:55;12.18;;;9.40;;
74227;SDS011;62587;52.352;5.006;2022-12-04T11:26:34;12.90;;;10.45;;
74227;SDS011;62587;52.352;5.006;2022-12-04T11:29:02;11.15;;;9.32;;
74227;SDS011;62587;52.352;5.006;2022-12-04T11:31:29;11.52;;;9.55;;
74227;SDS011;62587;52.352;5.006;2022-12-04T11:33:57;10.95;;;9.23;;
74227;SDS011;62587;52.352;5.006;2022-12-04T11:36:29;11.77;;;8.98;;
74227;SDS011;62587;52.352;5.006;2022-12-04T11:41:46;11.50;;;9.30;;
74227;SDS011;62587;52.352;5.006;2022-12-04T11:44:26;13.05;;;9.90;;
74227;SDS011;62587;52.352;5.006;2022-12-04T11:46:54;11.55;;;9.82;;
74227;SDS011;62587;52.352;5.006;2022-12-04T11:49:22;10.75;;;8.75;;
74227;SDS011;62587;52.352;5.006;2022-12-04T12:00:10;11.43;;;8.55;;
74227;SDS011;62587;52.352;5.006;2022-12-04T12:05:35;10.65;;;7.97;;
74227;SDS011;62587;52.352;5.006;2022-12-04T12:10:35;10.18;;;8.45;;
74227;SDS011;62587;52.352;5.006;2022-12-04T12:21:07;8.77;;;7.05;;
74227;SDS011;62587;52.352;5.006;2022-12-04T12:26:16;9.57;;;7.60;;
74227;SDS011;62587;52.352;5.006;2022-12-04T12:31:52;9.55;;;8.10;;
74227;SDS011;62587;52.352;5.006;2022-12-04T12:37:00;8.63;;;7.57;;
74227;SDS011;62587;52.352;5.006;2022-12-04T12:39:37;8.95;;;7.45;;
74227;SDS011;62587;52.352;5.006;2022-12-04T12:42:04;9.98;;;7.35;;
74227;SDS011;62587;52.352;5.006;2022-12-04T12:44:45;10.00;;;8.05;;
74227;SDS011;62587;52.352;5.006;2022-12-04T12:47:17;7.63;;;6.50;;
74227;SDS011;62587;52.352;5.006;2022-12-04T12:58:05;9.25;;;8.00;;
74227;SDS011;62587;52.352;5.006;2022-12-04T13:00:42;9.18;;;7.15;;
74227;SDS011;62587;52.352;5.006;2022-12-04T13:05:55;9.15;;;7.63;;
74227;SDS011;62587;52.352;5.006;2022-12-04T13:08:27;9.32;;;7.38;;
74227;SDS011;62587;52.352;5.006;2022-12-04T13:13:44;9.27;;;8.05;;
74227;SDS011;62587;52.352;5.006;2022-12-04T13:16:18;8.10;;;6.75;;
74227;SDS011;62587;52.352;5.006;2022-12-04T13:21:43;7.97;;;6.63;;
74227;SDS011;62587;52.352;5.006;2022-12-04T13:30:00;8.32;;;6.63;;
74227;SDS011;62587;52.352;5.006;2022-12-04T13:41:05;7.82;;;6.72;;
74227;SDS011;62587;52.352;5.006;2022-12-04T13:48:55;8.63;;;6.50;;
74227;SDS011;62587;52.352;5.006;2022-12-04T13:51:38;8.57;;;6.78;;
74227;SDS011;62587;52.352;5.006;2022-12-04T13:56:36;8.02;;;6.65;;
74227;SDS011;62587;52.352;5.006;2022-12-04T13:59:05;8.35;;;7.00;;
74227;SDS011;62587;52.352;5.006;2022-12-04T14:01:44;8.10;;;6.97;;
74227;SDS011;62587;52.352;5.006;2022-12-04T14:04:25;7.43;;;6.35;;
74227;SDS011;62587;52.352;5.006;2022-12-04T14:06:53;7.82;;;6.97;;
74227;SDS011;62587;52.352;5.006;2022-12-04T14:09:24;7.82;;;6.38;;
74227;SDS011;62587;52.352;5.006;2022-12-04T14:11:59;8.07;;;6.38;;
74227;SDS011;62587;52.352;5.006;2022-12-04T14:14:36;7.20;;;6.32;;
74227;SDS011;62587;52.352;5.006;2022-12-04T14:17:22;8.48;;;6.70;;
74227;SDS011;62587;52.352;5.006;2022-12-04T14:19:56;8.07;;;6.55;;
74227;SDS011;62587;52.352;5.006;2022-12-04T14:22:45;8.43;;;7.05;;
74227;SDS011;62587;52.352;5.006;2022-12-04T14:32:39;9.73;;;7.05;;
74227;SDS011;62587;52.352;5.006;2022-12-04T14:35:12;8.02;;;6.45;;
74227;SDS011;62587;52.352;5.006;2022-12-04T14:37:52;8.38;;;6.45;;
74227;SDS011;62587;52.352;5.006;2022-12-04T14:40:27;8.52;;;6.90;;
74227;SDS011;62587;52.352;5.006;2022-12-04T14:42:57;8.88;;;7.50;;
74227;SDS011;62587;52.352;5.006;2022-12-04T14:45:32;8.55;;;6.70;;
74227;SDS011;62587;52.352;5.006;2022-12-04T14:48:24;9.68;;;7.00;;
74227;SDS011;62587;52.352;5.006;2022-12-04T14:51:04;8.18;;;6.75;;
74227;SDS011;62587;52.352;5.006;2022-12-04T14:53:48;7.32;;;6.40;;
74227;SDS011;62587;52.352;5.006;2022-12-04T14:59:15;8.35;;;6.68;;
74227;SDS011;62587;52.352;5.006;2022-12-04T15:01:46;9.43;;;7.32;;
74227;SDS011;62587;52.352;5.006;2022-12-04T15:04:30;8.50;;;7.07;;
74227;SDS011;62587;52.352;5.006;2022-12-04T15:06:58;8.07;;;6.70;;
74227;SDS011;62587;52.352;5.006;2022-12-04T15:09:24;8.35;;;6.78;;
74227;SDS011;62587;52.352;5.006;2022-12-04T15:12:13;7.95;;;6.72;;
74227;SDS011;62587;52.352;5.006;2022-12-04T15:17:58;9.13;;;7.13;;
74227;SDS011;62587;52.352;5.006;2022-12-04T15:20:36;9.25;;;6.90;;
74227;SDS011;62587;52.352;5.006;2022-12-04T15:23:07;8.93;;;7.35;;
74227;SDS011;62587;52.352;5.006;2022-12-04T15:25:45;9.43;;;7.32;;
74227;SDS011;62587;52.352;5.006;2022-12-04T15:28:18;9.07;;;7.30;;
74227;SDS011;62587;52.352;5.006;2022-12-04T15:30:47;10.02;;;7.75;;
74227;SDS011;62587;52.352;5.006;2022-12-04T15:33:17;8.85;;;7.80;;
74227;SDS011;62587;52.352;5.006;2022-12-04T15:35:47;9.30;;;7.68;;
74227;SDS011;62587;52.352;5.006;2022-12-04T15:38:16;9.95;;;7.25;;
74227;SDS011;62587;52.352;5.006;2022-12-04T15:40:49;9.15;;;7.68;;
74227;SDS011;62587;52.352;5.006;2022-12-04T15:43:32;9.35;;;7.68;;
74227;SDS011;62587;52.352;5.006;2022-12-04T15:46:13;8.82;;;7.28;;
74227;SDS011;62587;52.352;5.006;2022-12-04T15:48:45;9.65;;;7.90;;
74227;SDS011;62587;52.352;5.006;2022-12-04T15:51:11;8.87;;;7.10;;
74227;SDS011;62587;52.352;5.006;2022-12-04T15:53:37;9.48;;;7.63;;
74227;SDS011;62587;52.352;5.006;2022-12-04T15:56:07;9.35;;;7.43;;
74227;SDS011;62587;52.352;5.006;2022-12-04T15:58:40;9.05;;;7.40;;
74227;SDS011;62587;52.352;5.006;2022-12-04T16:01:18;8.27;;;7.07;;
74227;SDS011;62587;52.352;5.006;2022-12-04T16:03:48;9.63;;;7.35;;
74227;SDS011;62587;52.352;5.006;2022-12-04T16:06:20;9.20;;;7.82;;
74227;SDS011;62587;52.352;5.006;2022-12-04T16:08:48;9.70;;;8.70;;
74227;SDS011;62587;52.352;5.006;2022-12-04T16:13:45;8.63;;;6.78;;
74227;SDS011;62587;52.352;5.006;2022-12-04T16:16:19;9.68;;;7.85;;
74227;SDS011;62587;52.352;5.006;2022-12-04T16:18:46;9.43;;;7.70;;
74227;SDS011;62587;52.352;5.006;2022-12-04T16:21:14;8.35;;;6.85;;
74227;SDS011;62587;52.352;5.006;2022-12-04T16:23:42;8.95;;;7.35;;
74227;SDS011;62587;52.352;5.006;2022-12-04T16:26:11;8.70;;;7.32;;
74227;SDS011;62587;52.352;5.006;2022-12-04T16:28:38;9.27;;;7.63;;
74227;SDS011;62587;52.352;5.006;2022-12-04T16:31:03;8.53;;;7.00;;
74227;SDS011;62587;52.352;5.006;2022-12-04T16:33:28;9.10;;;6.97;;
74227;SDS011;62587;52.352;5.006;2022-12-04T16:35:54;10.07;;;7.60;;
74227;SDS011;62587;52.352;5.006;2022-12-04T16:38:19;8.07;;;7.00;;
74227;SDS011;62587;52.352;5.006;2022-12-04T16:40:45;8.17;;;6.37;;
74227;SDS011;62587;52.352;5.006;2022-12-04T16:43:11;8.55;;;6.90;;
74227;SDS011;62587;52.352;5.006;2022-12-04T16:45:41;7.53;;;6.72;;
74227;SDS011;62587;52.352;5.006;2022-12-04T16:48:10;8.18;;;7.00;;
74227;SDS011;62587;52.352;5.006;2022-12-04T16:50:35;7.82;;;6.90;;
74227;SDS011;62587;52.352;5.006;2022-12-04T16:53:01;8.68;;;7.63;;
74227;SDS011;62587;52.352;5.006;2022-12-04T16:57:59;8.27;;;6.72;;
74227;SDS011;62587;52.352;5.006;2022-12-04T17:00:25;8.80;;;6.70;;
74227;SDS011;62587;52.352;5.006;2022-12-04T17:02:50;8.75;;;7.43;;
74227;SDS011;62587;52.352;5.006;2022-12-04T17:05:26;8.65;;;7.30;;
74227;SDS011;62587;52.352;5.006;2022-12-04T17:07:53;7.97;;;7.00;;
74227;SDS011;62587;52.352;5.006;2022-12-04T17:10:19;8.63;;;7.18;;
74227;SDS011;62587;52.352;5.006;2022-12-04T17:12:45;7.60;;;6.80;;